Time;durP1;ratioP1;P1;durP2;ratioP2;P2;SDS_P1;SDS_P2;PMS_P1;PMS_P2;Temp;Humidity;BMP_temperature;BMP_pressure;BME280_temperature;BME280_humidity;BME280_pressure;Samples;Min_cycle;Max_cycle;Signal;HPM_P1;HPM_P2
2020/12/14 00:00:58;;;;;;;81.00;43.97;;;6.60;94.20;;;;;;2081618;28;20035;-74
2020/12/14 00:01:58;;;;;;;77.78;43.10;;;6.60;94.20;;;;;;2081275;28;20516;-73
2020/12/14 00:02:59;;;;;;;80.15;42.78;;;6.60;94.30;;;;;;2081716;28;20092;-75
2020/12/14 00:04:00;;;;;;;77.68;42.22;;;6.60;94.30;;;;;;2081889;28;20087;-77
2020/12/14 00:05:00;;;;;;;81.53;43.17;;;6.60;94.30;;;;;;2080893;28;20530;-74
2020/12/14 00:06:01;;;;;;;73.82;40.88;;;6.60;94.30;;;;;;2080891;28;20039;-74
2020/12/14 00:07:02;;;;;;;71.88;39.70;;;6.60;94.40;;;;;;2080882;28;20034;-74
2020/12/14 00:08:03;;;;;;;71.40;39.85;;;6.60;94.30;;;;;;2080926;28;20025;-74
2020/12/14 00:09:05;;;;;;;72.90;40.47;;;6.60;94.30;;;;;;2081662;28;20105;-74
2020/12/14 00:10:07;;;;;;;74.80;41.58;;;6.60;94.30;;;;;;2081735;28;20025;-75
2020/12/14 00:11:08;;;;;;;83.25;44.17;;;6.60;94.20;;;;;;2081590;28;20032;-74
2020/12/14 00:12:10;;;;;;;75.80;41.17;;;6.60;94.20;;;;;;2080923;28;20022;-74
2020/12/14 00:13:10;;;;;;;73.22;41.13;;;6.60;94.20;;;;;;2081637;28;20029;-74
2020/12/14 00:14:11;;;;;;;70.72;38.78;;;6.60;94.20;;;;;;2081609;28;20055;-74
2020/12/14 00:15:12;;;;;;;70.70;39.42;;;6.60;94.50;;;;;;2081553;28;20033;-74
2020/12/14 00:16:12;;;;;;;69.50;38.47;;;6.60;94.20;;;;;;2081599;28;20030;-74
2020/12/14 00:17:17;;;;;;;71.05;38.67;;;6.60;94.20;;;;;;2081526;28;20104;-73
2020/12/14 00:18:18;;;;;;;71.20;40.17;;;6.60;94.20;;;;;;2081344;28;20029;-74
2020/12/14 00:19:18;;;;;;;68.88;38.53;;;6.60;94.20;;;;;;2080711;28;20032;-73
2020/12/14 00:20:19;;;;;;;70.20;38.45;;;6.60;94.20;;;;;;2072514;28;20026;-73
2020/12/14 00:21:20;;;;;;;69.32;38.63;;;6.60;94.20;;;;;;2080847;28;20033;-74
2020/12/14 00:22:20;;;;;;;67.50;38.38;;;6.60;94.20;;;;;;2081525;28;20439;-76
2020/12/14 00:23:21;;;;;;;76.40;41.08;;;6.60;94.20;;;;;;2084255;28;20036;-77
2020/12/14 00:24:22;;;;;;;69.65;39.42;;;6.60;94.20;;;;;;2076476;28;20056;-77
2020/12/14 00:25:23;;;;;;;80.72;42.55;;;6.60;94.20;;;;;;2084442;28;20393;-78
2020/12/14 00:26:23;;;;;;;78.72;41.83;;;6.60;94.20;;;;;;2084183;28;20025;-78
2020/12/14 00:27:24;;;;;;;82.47;43.58;;;6.60;94.10;;;;;;2083930;28;20435;-77
2020/12/14 00:28:25;;;;;;;77.00;41.35;;;6.60;94.20;;;;;;2084289;28;20025;-77
2020/12/14 00:29:25;;;;;;;74.60;41.05;;;6.60;94.10;;;;;;2082643;28;20041;-77
2020/12/14 00:30:26;;;;;;;74.22;40.85;;;6.60;94.10;;;;;;2082381;28;20040;-77
2020/12/14 00:31:27;;;;;;;80.97;43.47;;;6.60;94.10;;;;;;2082487;28;20038;-76
2020/12/14 00:32:27;;;;;;;75.97;41.65;;;6.60;94.00;;;;;;2081782;28;20038;-77
2020/12/14 00:33:28;;;;;;;74.75;40.90;;;6.60;94.00;;;;;;2065675;28;20067;-76
2020/12/14 00:34:29;;;;;;;74.65;41.10;;;6.60;94.00;;;;;;2057458;28;20022;-76
2020/12/14 00:35:30;;;;;;;71.60;40.55;;;6.60;94.00;;;;;;2065690;28;20069;-76
2020/12/14 00:36:30;;;;;;;72.80;41.58;;;6.60;93.90;;;;;;2066010;28;20038;-77
2020/12/14 00:37:31;;;;;;;73.65;41.38;;;6.60;93.90;;;;;;2068550;28;20026;-77
2020/12/14 00:38:32;;;;;;;75.32;42.33;;;6.60;93.90;;;;;;2077210;28;20044;-77
2020/12/14 00:39:33;;;;;;;73.65;40.28;;;6.60;93.90;;;;;;2085570;28;20126;-77
2020/12/14 00:40:33;;;;;;;70.70;40.88;;;6.60;93.90;;;;;;2085953;28;20032;-77
2020/12/14 00:41:34;;;;;;;69.28;38.80;;;6.60;93.90;;;;;;2083879;28;20096;-76
2020/12/14 00:42:35;;;;;;;68.47;39.50;;;6.60;93.90;;;;;;2082338;28;20493;-76
2020/12/14 00:43:35;;;;;;;69.10;39.05;;;6.60;93.90;;;;;;2082612;28;20036;-76
2020/12/14 00:44:36;;;;;;;75.60;40.95;;;6.60;93.90;;;;;;2074247;28;20042;-76
2020/12/14 00:45:37;;;;;;;74.55;40.83;;;6.60;93.90;;;;;;2074470;28;20036;-76
2020/12/14 00:46:38;;;;;;;74.00;40.70;;;6.60;93.80;;;;;;2082473;28;20029;-76
2020/12/14 00:47:38;;;;;;;72.85;40.97;;;6.60;93.80;;;;;;2082047;28;20033;-77
2020/12/14 00:48:39;;;;;;;71.13;40.60;;;6.60;93.70;;;;;;2074256;28;20080;-76
2020/12/14 00:49:40;;;;;;;74.03;40.95;;;6.50;93.70;;;;;;2082150;28;20460;-77
2020/12/14 00:50:41;;;;;;;72.28;41.20;;;6.50;93.70;;;;;;2081905;28;20026;-76
2020/12/14 00:51:41;;;;;;;70.25;39.75;;;6.40;93.80;;;;;;2082312;28;20037;-76
2020/12/14 00:52:42;;;;;;;71.63;40.90;;;6.40;93.90;;;;;;2073870;28;20053;-76
2020/12/14 00:53:43;;;;;;;80.97;42.55;;;6.40;94.00;;;;;;2058347;28;20042;-76
2020/12/14 00:54:43;;;;;;;79.97;43.03;;;6.20;94.10;;;;;;2074994;28;20030;-76
2020/12/14 00:55:44;;;;;;;77.13;42.10;;;6.20;94.30;;;;;;2083399;28;20426;-76
2020/12/14 00:56:45;;;;;;;74.82;40.88;;;6.10;94.30;;;;;;2084096;28;20032;-76
2020/12/14 00:57:45;;;;;;;75.90;41.55;;;6.10;94.40;;;;;;2084040;28;20032;-76
2020/12/14 00:58:46;;;;;;;81.82;44.25;;;6.00;94.50;;;;;;2083299;28;20048;-76
2020/12/14 00:59:47;;;;;;;75.97;41.47;;;6.00;94.70;;;;;;2083072;28;20029;-76
2020/12/14 01:00:48;;;;;;;84.50;42.83;;;5.90;94.80;;;;;;2084040;28;20021;-76
2020/12/14 01:01:52;;;;;;;78.50;42.47;;;5.90;94.90;;;;;;2075958;28;20712;-76
2020/12/14 01:02:53;;;;;;;79.90;43.28;;;5.80;95.00;;;;;;2076517;28;20049;-77
2020/12/14 01:03:54;;;;;;;76.50;41.78;;;5.80;95.10;;;;;;2083567;28;20075;-80
2020/12/14 01:04:54;;;;;;;77.85;40.80;;;5.70;95.20;;;;;;2082902;28;20040;-77
2020/12/14 01:05:55;;;;;;;75.97;40.22;;;5.70;95.30;;;;;;2090565;28;20535;-76
2020/12/14 01:06:56;;;;;;;71.43;39.47;;;5.60;95.30;;;;;;2082261;28;20017;-76
2020/12/14 01:07:56;;;;;;;73.70;40.38;;;5.60;95.30;;;;;;2082476;28;20052;-76
2020/12/14 01:08:57;;;;;;;80.40;41.67;;;5.60;95.40;;;;;;2083203;28;20064;-76
2020/12/14 01:09:58;;;;;;;74.25;40.53;;;5.60;95.60;;;;;;2083038;28;20040;-76
2020/12/14 01:10:59;;;;;;;80.60;42.30;;;5.50;95.60;;;;;;2082608;28;20033;-76
2020/12/14 01:12:03;;;;;;;72.57;40.08;;;5.50;95.70;;;;;;2081091;28;20032;-76
2020/12/14 01:13:03;;;;;;;70.43;39.00;;;5.50;95.70;;;;;;2081358;28;20101;-76
2020/12/14 01:14:04;;;;;;;70.57;40.38;;;5.40;95.70;;;;;;2082591;28;20072;-76
2020/12/14 01:15:05;;;;;;;73.45;39.53;;;5.40;95.80;;;;;;2081505;28;20029;-76
2020/12/14 01:16:09;;;;;;;82.88;43.13;;;5.40;95.90;;;;;;2081776;28;20087;-76
2020/12/14 01:17:10;;;;;;;75.22;40.72;;;5.40;95.90;;;;;;2081908;28;20032;-76
2020/12/14 01:18:11;;;;;;;75.05;39.83;;;5.40;96.00;;;;;;2081564;28;20045;-77
2020/12/14 01:19:11;;;;;;;75.22;40.10;;;5.30;96.10;;;;;;2082089;28;20052;-77
2020/12/14 01:20:14;;;;;;;72.18;39.15;;;5.30;96.10;;;;;;2081895;28;20044;-76
2020/12/14 01:21:19;;;;;;;71.68;38.10;;;5.30;96.10;;;;;;2082733;28;20037;-76
2020/12/14 01:22:19;;;;;;;67.57;37.67;;;5.30;96.20;;;;;;2082299;28;20018;-77
2020/12/14 01:23:20;;;;;;;69.63;37.47;;;5.30;96.20;;;;;;2081666;28;20057;-77
2020/12/14 01:24:21;;;;;;;68.38;37.33;;;5.20;96.10;;;;;;2081951;28;20121;-76
2020/12/14 01:25:21;;;;;;;78.97;41.47;;;5.20;96.10;;;;;;2082513;28;20021;-76
2020/12/14 01:26:22;;;;;;;78.25;40.95;;;5.20;96.20;;;;;;2073602;28;20029;-77
2020/12/14 01:27:23;;;;;;;82.95;42.70;;;5.20;96.30;;;;;;2073668;28;20030;-77
2020/12/14 01:28:24;;;;;;;81.95;42.10;;;5.20;96.50;;;;;;2081592;28;20060;-76
2020/12/14 01:29:24;;;;;;;78.05;41.53;;;5.20;96.50;;;;;;2082362;28;20476;-77
2020/12/14 01:30:25;;;;;;;76.88;40.22;;;5.20;96.50;;;;;;2076240;28;20030;-77
2020/12/14 01:31:27;;;;;;;75.95;40.00;;;5.20;96.50;;;;;;2073784;28;20033;-77
2020/12/14 01:32:28;;;;;;;75.28;39.67;;;5.10;96.40;;;;;;2084903;28;20159;-76
2020/12/14 01:33:29;;;;;;;76.45;39.90;;;5.20;96.50;;;;;;2077637;28;20127;-76
2020/12/14 01:34:29;;;;;;;82.65;41.53;;;5.10;96.50;;;;;;2077500;28;20038;-77
2020/12/14 01:35:30;;;;;;;79.75;42.45;;;5.10;96.50;;;;;;2077573;28;20141;-76
2020/12/14 01:36:31;;;;;;;75.40;40.58;;;5.10;96.60;;;;;;2085720;28;20033;-77
2020/12/14 01:37:31;;;;;;;81.13;41.35;;;5.10;96.60;;;;;;2086244;28;20033;-76
2020/12/14 01:38:32;;;;;;;81.70;42.63;;;5.10;96.60;;;;;;2086186;28;20053;-76
2020/12/14 01:39:33;;;;;;;77.18;40.85;;;5.10;96.70;;;;;;2078930;28;20025;-76
2020/12/14 01:40:34;;;;;;;78.13;41.05;;;5.00;96.70;;;;;;2079456;28;20022;-76
2020/12/14 01:41:34;;;;;;;74.88;40.42;;;5.00;96.70;;;;;;2086933;28;20022;-76
2020/12/14 01:42:41;;;;;;;72.93;39.38;;;5.00;96.80;;;;;;2073521;28;20034;-76
2020/12/14 01:43:42;;;;;;;78.85;40.50;;;5.00;96.70;;;;;;2074296;28;20021;-76
2020/12/14 01:44:43;;;;;;;77.85;40.60;;;5.00;96.70;;;;;;2075157;28;20018;-76
2020/12/14 01:45:44;;;;;;;77.15;40.65;;;5.00;96.80;;;;;;2075006;28;20064;-76
2020/12/14 01:46:45;;;;;;;79.07;40.80;;;5.00;96.90;;;;;;2074617;28;20722;-76
2020/12/14 01:47:49;;;;;;;76.05;40.55;;;4.90;96.90;;;;;;2065202;28;20521;-76
2020/12/14 01:48:50;;;;;;;76.85;39.95;;;4.90;96.90;;;;;;2065968;28;20042;-76
2020/12/14 01:49:50;;;;;;;79.32;40.72;;;4.90;96.90;;;;;;2065195;28;20034;-76
2020/12/14 01:50:52;;;;;;;81.15;42.33;;;4.90;96.90;;;;;;2065317;28;20105;-76
2020/12/14 01:51:53;;;;;;;81.57;42.42;;;4.90;97.00;;;;;;2081109;28;20099;-76
2020/12/14 01:52:59;;;;;;;82.80;42.60;;;4.90;97.20;;;;;;2073483;28;20499;-76
2020/12/14 01:54:17;;;;;;;84.85;43.22;;;4.90;97.10;;;;;;2074787;28;20026;-76
2020/12/14 01:55:19;;;;;;;81.80;41.85;;;4.90;97.10;;;;;;2066085;28;20374;-77
2020/12/14 01:56:23;;;;;;;90.10;44.92;;;4.90;97.10;;;;;;2057537;28;20514;-76
2020/12/14 01:57:24;;;;;;;85.75;43.72;;;4.90;97.20;;;;;;2073731;28;20029;-76
2020/12/14 01:58:24;;;;;;;78.80;41.78;;;4.90;97.20;;;;;;2073175;28;20543;-76
2020/12/14 01:59:25;;;;;;;87.97;43.67;;;4.90;97.10;;;;;;2073697;28;20025;-77
2020/12/14 02:00:26;;;;;;;90.82;45.80;;;4.80;97.20;;;;;;2073849;28;20544;-77
2020/12/14 02:01:26;;;;;;;83.68;43.53;;;4.80;97.30;;;;;;2065558;28;20073;-76
2020/12/14 02:02:31;;;;;;;86.55;43.60;;;4.80;97.30;;;;;;2065450;28;20336;-77
2020/12/14 02:03:31;;;;;;;85.78;44.08;;;4.80;97.30;;;;;;2073856;28;20030;-76
2020/12/14 02:04:32;;;;;;;86.00;43.45;;;4.80;97.30;;;;;;2074115;28;20026;-76
2020/12/14 02:05:33;;;;;;;86.95;44.00;;;4.80;97.40;;;;;;2074011;28;20033;-77
2020/12/14 02:06:33;;;;;;;84.13;43.25;;;4.80;97.40;;;;;;2074093;28;20022;-76
2020/12/14 02:07:35;;;;;;;85.47;43.08;;;4.80;97.40;;;;;;2073752;28;20026;-76
2020/12/14 02:08:35;;;;;;;87.50;43.50;;;4.80;97.40;;;;;;2073112;28;20038;-76
2020/12/14 02:09:36;;;;;;;81.45;42.63;;;4.80;97.40;;;;;;2074492;28;20057;-77
2020/12/14 02:10:37;;;;;;;79.47;41.92;;;4.80;97.30;;;;;;2065579;28;20034;-76
2020/12/14 02:11:38;;;;;;;83.68;42.35;;;4.80;97.30;;;;;;2064730;28;20482;-76
2020/12/14 02:12:38;;;;;;;78.97;41.10;;;4.80;97.30;;;;;;2073237;28;20544;-76
2020/12/14 02:13:39;;;;;;;76.90;40.85;;;4.80;97.30;;;;;;2073430;28;20029;-76
2020/12/14 02:14:40;;;;;;;79.43;40.45;;;4.80;97.20;;;;;;2073749;28;20030;-76
2020/12/14 02:15:40;;;;;;;74.90;39.15;;;4.80;97.20;;;;;;2066117;28;20031;-76
2020/12/14 02:16:41;;;;;;;80.22;41.65;;;4.70;97.10;;;;;;2066424;28;20371;-77
2020/12/14 02:17:42;;;;;;;79.20;40.85;;;4.70;97.20;;;;;;2065839;28;20146;-76
2020/12/14 02:18:42;;;;;;;79.88;40.58;;;4.80;97.20;;;;;;2057080;28;20034;-76
2020/12/14 02:19:43;;;;;;;80.03;40.95;;;4.70;97.20;;;;;;2064920;28;20030;-77
2020/12/14 02:20:44;;;;;;;74.93;40.05;;;4.70;97.60;;;;;;2081054;28;20025;-76
2020/12/14 02:21:49;;;;;;;74.50;39.60;;;4.70;97.30;;;;;;2072811;28;20056;-77
2020/12/14 02:22:50;;;;;;;75.97;39.90;;;4.70;97.30;;;;;;2074158;28;20413;-77
2020/12/14 02:23:50;;;;;;;76.25;40.08;;;4.70;97.30;;;;;;2066708;28;20126;-77
2020/12/14 02:24:58;;;;;;;73.30;39.78;;;4.70;97.20;;;;;;2058145;28;20033;-77
2020/12/14 02:25:58;;;;;;;79.90;40.70;;;4.70;97.30;;;;;;2059280;28;20050;-77
2020/12/14 02:26:59;;;;;;;76.60;39.53;;;4.70;97.30;;;;;;2073450;28;20112;-77
2020/12/14 02:28:00;;;;;;;77.28;40.90;;;4.60;97.20;;;;;;2073322;28;20037;-77
2020/12/14 02:29:00;;;;;;;80.97;40.60;;;4.60;97.20;;;;;;2073186;28;20064;-76
2020/12/14 02:30:02;;;;;;;83.15;42.08;;;4.60;97.30;;;;;;2073510;28;20029;-77
2020/12/14 02:31:04;;;;;;;89.00;43.10;;;4.60;97.30;;;;;;2074050;28;20025;-76
2020/12/14 02:32:04;;;;;;;87.80;44.05;;;4.60;97.40;;;;;;2073679;28;20026;-76
2020/12/14 02:33:05;;;;;;;86.63;43.30;;;4.60;97.50;;;;;;2074772;28;20485;-76
2020/12/14 02:34:06;;;;;;;88.32;44.55;;;4.60;97.40;;;;;;2074434;28;20032;-76
2020/12/14 02:35:06;;;;;;;83.40;42.45;;;4.60;97.50;;;;;;2073911;28;20030;-76
2020/12/14 02:36:07;;;;;;;88.60;44.17;;;4.60;97.50;;;;;;2073596;28;20405;-77
2020/12/14 02:37:09;;;;;;;86.95;43.63;;;4.60;97.50;;;;;;2074460;28;20048;-77
2020/12/14 02:38:10;;;;;;;80.82;43.60;;;4.60;97.80;;;;;;2073515;28;20060;-76
2020/12/14 02:39:11;;;;;;;83.22;42.78;;;4.50;97.40;;;;;;2073272;28;20485;-77
2020/12/14 02:40:11;;;;;;;77.15;40.80;;;4.50;97.40;;;;;;2073284;28;20026;-76
2020/12/14 02:41:12;;;;;;;77.07;40.00;;;4.50;97.30;;;;;;2065040;28;20512;-77
2020/12/14 02:42:15;;;;;;;78.47;40.33;;;4.50;97.30;;;;;;2072776;28;20026;-77
2020/12/14 02:43:16;;;;;;;80.75;41.67;;;4.40;97.30;;;;;;2073336;28;20068;-77
2020/12/14 02:44:17;;;;;;;88.90;43.55;;;4.50;97.30;;;;;;2073258;28;20072;-76
2020/12/14 02:45:17;;;;;;;79.25;41.15;;;4.40;97.40;;;;;;2064935;28;20114;-76
2020/12/14 02:46:18;;;;;;;79.65;40.60;;;4.40;97.40;;;;;;2065060;28;20073;-77
2020/12/14 02:47:19;;;;;;;75.75;39.60;;;4.40;97.40;;;;;;2073421;28;20377;-76
2020/12/14 02:48:20;;;;;;;75.60;40.15;;;4.40;97.40;;;;;;2065116;28;20022;-77
2020/12/14 02:49:20;;;;;;;76.03;38.83;;;4.30;97.30;;;;;;2065224;28;20038;-75
2020/12/14 02:50:21;;;;;;;78.97;40.17;;;4.40;97.40;;;;;;2073145;28;20053;-76
2020/12/14 02:51:22;;;;;;;75.40;39.55;;;4.30;97.40;;;;;;2072882;28;20092;-76
2020/12/14 02:52:22;;;;;;;81.38;41.40;;;4.30;97.40;;;;;;2072777;28;20037;-76
2020/12/14 02:53:23;;;;;;;88.55;43.45;;;4.30;97.50;;;;;;2073393;28;20821;-77
2020/12/14 02:54:24;;;;;;;87.55;43.45;;;4.30;97.50;;;;;;2073237;28;20037;-76
2020/12/14 02:55:25;;;;;;;88.07;44.42;;;4.30;97.60;;;;;;2064661;28;20037;-76
2020/12/14 02:56:25;;;;;;;84.55;43.28;;;4.30;97.70;;;;;;2064995;28;20034;-76
2020/12/14 02:57:26;;;;;;;80.97;41.58;;;4.30;97.70;;;;;;2078569;28;20424;-77
2020/12/14 02:58:26;;;;;;;86.85;43.17;;;4.30;97.70;;;;;;2080909;28;20732;-76
2020/12/14 02:59:27;;;;;;;81.78;41.88;;;4.30;97.80;;;;;;2081010;28;20021;-77
2020/12/14 03:00:28;;;;;;;82.50;41.10;;;4.30;97.80;;;;;;2073105;28;20056;-77
2020/12/14 03:01:28;;;;;;;81.70;41.10;;;4.20;97.60;;;;;;2080475;28;20033;-77
2020/12/14 03:02:29;;;;;;;78.82;39.97;;;4.30;97.70;;;;;;2081228;28;20088;-76
2020/12/14 03:03:30;;;;;;;75.43;39.38;;;4.20;97.60;;;;;;2081312;28;20101;-77
2020/12/14 03:04:31;;;;;;;78.88;39.63;;;4.20;97.60;;;;;;2073402;28;20382;-77
2020/12/14 03:05:32;;;;;;;77.10;40.40;;;4.20;97.60;;;;;;2073412;28;20030;-76
2020/12/14 03:06:33;;;;;;;77.10;38.58;;;4.20;97.60;;;;;;2081749;28;20424;-76
2020/12/14 03:07:34;;;;;;;80.35;40.00;;;4.20;97.60;;;;;;2073492;28;20033;-76
2020/12/14 03:08:34;;;;;;;78.85;40.22;;;4.20;97.60;;;;;;2073241;28;20049;-77
2020/12/14 03:09:35;;;;;;;91.03;43.28;;;4.20;97.70;;;;;;2073281;28;20030;-76
2020/12/14 03:10:36;;;;;;;87.57;43.40;;;4.10;97.70;;;;;;2074211;28;20038;-76
2020/12/14 03:11:38;;;;;;;81.30;41.42;;;4.10;97.80;;;;;;2073062;28;20030;-75
2020/12/14 03:12:38;;;;;;;81.65;41.58;;;4.10;97.90;;;;;;2081005;28;20036;-76
2020/12/14 03:13:39;;;;;;;82.97;40.42;;;4.10;97.90;;;;;;2081362;28;20045;-76
2020/12/14 03:14:40;;;;;;;89.13;43.42;;;4.10;97.90;;;;;;2082941;28;20026;-76
2020/12/14 03:15:40;;;;;;;84.72;42.03;;;4.10;98.30;;;;;;2083716;28;20040;-76
2020/12/14 03:16:48;;;;;;;83.53;41.67;;;4.10;98.30;;;;;;2083068;28;20580;-76
2020/12/14 03:17:48;;;;;;;82.95;40.55;;;4.10;97.90;;;;;;2083069;28;20120;-75
2020/12/14 03:18:49;;;;;;;83.65;41.53;;;4.10;97.90;;;;;;2083671;28;20033;-75
2020/12/14 03:19:50;;;;;;;84.32;41.75;;;4.10;97.90;;;;;;2083038;28;20040;-75
2020/12/14 03:20:50;;;;;;;85.50;42.90;;;4.10;98.00;;;;;;2083129;28;20165;-75
2020/12/14 03:21:51;;;;;;;82.88;40.17;;;4.10;98.00;;;;;;2083261;28;20028;-77
2020/12/14 03:22:52;;;;;;;79.60;39.17;;;4.10;98.00;;;;;;2082710;28;20030;-75
2020/12/14 03:23:53;;;;;;;79.80;39.00;;;4.10;98.00;;;;;;2066783;28;20034;-76
2020/12/14 03:24:53;;;;;;;76.45;39.08;;;4.00;97.90;;;;;;2066574;28;20034;-75
2020/12/14 03:25:54;;;;;;;77.68;39.03;;;4.00;97.80;;;;;;2058727;28;20031;-76
2020/12/14 03:26:55;;;;;;;76.25;39.42;;;4.00;97.80;;;;;;2074670;28;20030;-75
2020/12/14 03:27:55;;;;;;;77.28;39.58;;;4.00;97.80;;;;;;2083004;28;20114;-76
2020/12/14 03:28:56;;;;;;;80.80;40.17;;;4.00;97.80;;;;;;2082607;28;20021;-77
2020/12/14 03:29:57;;;;;;;75.00;38.25;;;4.00;97.80;;;;;;2081611;28;20033;-76
2020/12/14 03:30:57;;;;;;;73.50;37.17;;;4.00;97.80;;;;;;2075188;28;20048;-76
2020/12/14 03:31:58;;;;;;;69.20;36.65;;;4.00;97.70;;;;;;2074548;28;20030;-76
2020/12/14 03:32:59;;;;;;;69.82;36.90;;;3.90;97.70;;;;;;2075150;28;20080;-75
2020/12/14 03:34:00;;;;;;;69.65;36.47;;;3.90;97.70;;;;;;2074960;28;20026;-76
2020/12/14 03:35:01;;;;;;;70.32;36.05;;;3.90;97.70;;;;;;2075203;28;20022;-76
2020/12/14 03:36:03;;;;;;;71.85;36.90;;;3.80;97.70;;;;;;2074688;28;20424;-75
2020/12/14 03:37:03;;;;;;;71.03;35.85;;;3.80;97.80;;;;;;2075851;28;20034;-76
2020/12/14 03:38:04;;;;;;;68.95;35.03;;;3.80;97.80;;;;;;2076423;28;20044;-76
2020/12/14 03:39:07;;;;;;;66.40;35.05;;;3.80;97.70;;;;;;2067344;28;20034;-76
2020/12/14 03:40:07;;;;;;;68.75;35.00;;;3.80;97.80;;;;;;2066926;28;20026;-76
2020/12/14 03:41:08;;;;;;;67.55;34.67;;;3.80;97.90;;;;;;2075551;28;20022;-76
2020/12/14 03:42:09;;;;;;;70.88;35.50;;;3.70;97.90;;;;;;2066546;28;20093;-76
2020/12/14 03:43:10;;;;;;;66.38;34.40;;;3.70;97.90;;;;;;2067212;28;20105;-76
2020/12/14 03:44:10;;;;;;;68.88;35.50;;;3.70;97.90;;;;;;2076659;28;20018;-77
2020/12/14 03:45:11;;;;;;;68.68;34.92;;;3.70;98.00;;;;;;2077318;28;20029;-77
2020/12/14 03:46:19;;;;;;;69.38;35.20;;;3.70;98.00;;;;;;2077226;28;20025;-77
2020/12/14 03:47:20;;;;;;;69.28;35.45;;;3.70;98.00;;;;;;2077744;28;20034;-76
2020/12/14 03:48:20;;;;;;;70.63;36.08;;;3.70;98.10;;;;;;2077197;28;20080;-77
2020/12/14 03:49:21;;;;;;;66.38;34.05;;;3.70;98.10;;;;;;2066914;28;20042;-76
2020/12/14 03:50:22;;;;;;;67.45;33.80;;;3.70;98.10;;;;;;2067024;28;20085;-77
2020/12/14 03:51:24;;;;;;;70.53;36.15;;;3.70;98.20;;;;;;2075568;28;20038;-76
2020/12/14 03:52:25;;;;;;;70.43;35.88;;;3.70;98.20;;;;;;2082859;28;20025;-76
2020/12/14 03:53:26;;;;;;;68.60;34.97;;;3.70;98.60;;;;;;2075167;28;20029;-77
2020/12/14 03:54:26;;;;;;;75.22;36.42;;;3.80;98.30;;;;;;2075574;28;20061;-76
2020/12/14 03:55:27;;;;;;;69.15;34.95;;;3.80;98.40;;;;;;2083977;28;20048;-76
2020/12/14 03:56:28;;;;;;;66.97;34.20;;;3.80;98.30;;;;;;2075784;28;20478;-77
2020/12/14 03:57:30;;;;;;;69.90;35.17;;;3.80;98.30;;;;;;2076397;28;20034;-77
2020/12/14 03:58:31;;;;;;;69.68;34.90;;;3.80;98.40;;;;;;2085645;28;20428;-77
2020/12/14 03:59:32;;;;;;;66.35;33.90;;;3.80;98.30;;;;;;2085367;28;20104;-78
2020/12/14 04:00:33;;;;;;;66.53;33.65;;;3.80;98.30;;;;;;2077694;28;20022;-77
2020/12/14 04:01:34;;;;;;;70.07;34.38;;;3.90;98.60;;;;;;2076653;28;20522;-77
2020/12/14 04:02:34;;;;;;;68.32;34.15;;;3.90;98.30;;;;;;2076406;28;20068;-77
2020/12/14 04:03:35;;;;;;;64.68;33.90;;;3.90;98.30;;;;;;2076685;28;20092;-77
2020/12/14 04:04:36;;;;;;;66.03;33.63;;;3.90;98.30;;;;;;2076335;28;20029;-77
2020/12/14 04:05:37;;;;;;;67.40;34.60;;;3.90;98.30;;;;;;2075111;28;20022;-77
2020/12/14 04:06:38;;;;;;;70.53;34.53;;;3.90;98.30;;;;;;2074158;28;20133;-78
2020/12/14 04:07:38;;;;;;;74.05;36.10;;;3.90;98.30;;;;;;2074639;28;20038;-76
2020/12/14 04:08:39;;;;;;;71.30;35.90;;;3.90;98.30;;;;;;2074794;28;20026;-77
2020/12/14 04:09:40;;;;;;;74.15;35.60;;;4.00;98.40;;;;;;2067295;28;20026;-77
2020/12/14 04:10:40;;;;;;;67.35;34.47;;;4.00;98.30;;;;;;2075428;28;20536;-77
2020/12/14 04:11:41;;;;;;;72.68;35.40;;;4.00;98.30;;;;;;2076708;28;20034;-78
2020/12/14 04:12:42;;;;;;;71.63;34.83;;;4.00;98.20;;;;;;2075121;28;20409;-77
2020/12/14 04:13:43;;;;;;;69.43;34.97;;;4.00;98.20;;;;;;2065997;28;20057;-77
2020/12/14 04:14:44;;;;;;;69.47;35.47;;;4.00;98.20;;;;;;2074115;28;20053;-77
2020/12/14 04:15:44;;;;;;;69.00;34.58;;;4.00;98.10;;;;;;2074048;28;20025;-77
2020/12/14 04:16:45;;;;;;;69.40;34.58;;;4.00;98.20;;;;;;2074182;28;20033;-77
2020/12/14 04:17:46;;;;;;;68.28;34.75;;;4.00;98.10;;;;;;2074220;28;20030;-77
2020/12/14 04:18:49;;;;;;;68.55;34.38;;;4.00;98.10;;;;;;2074007;28;20117;-76
2020/12/14 04:19:49;;;;;;;65.93;33.35;;;4.10;98.10;;;;;;2081793;28;20013;-77
2020/12/14 04:20:50;;;;;;;69.13;33.88;;;4.10;98.10;;;;;;2074516;28;20022;-77
2020/12/14 04:21:51;;;;;;;65.78;32.60;;;4.10;98.10;;;;;;2073090;28;20065;-76
2020/12/14 04:22:52;;;;;;;65.65;33.28;;;4.10;98.10;;;;;;2073136;28;20054;-76
2020/12/14 04:23:53;;;;;;;65.88;32.58;;;4.10;98.00;;;;;;2081261;28;20021;-76
2020/12/14 04:24:54;;;;;;;63.22;31.73;;;4.10;98.00;;;;;;2081247;28;20080;-76
2020/12/14 04:25:54;;;;;;;62.58;31.98;;;4.10;98.00;;;;;;2073726;28;20013;-76
2020/12/14 04:26:55;;;;;;;63.85;32.17;;;4.10;97.90;;;;;;2073687;28;20056;-76
2020/12/14 04:28:00;;;;;;;65.95;33.47;;;4.10;97.90;;;;;;2073275;28;20029;-76
2020/12/14 04:29:00;;;;;;;66.75;34.10;;;4.20;97.90;;;;;;2073358;28;20022;-76
2020/12/14 04:30:01;;;;;;;62.25;32.40;;;4.20;97.90;;;;;;2073904;28;20054;-75
2020/12/14 04:31:02;;;;;;;63.88;32.63;;;4.20;97.90;;;;;;2075008;28;20050;-76
2020/12/14 04:32:03;;;;;;;59.70;31.63;;;4.20;97.90;;;;;;2073797;28;20493;-76
2020/12/14 04:33:05;;;;;;;61.53;31.52;;;4.20;97.90;;;;;;2073556;28;20057;-75
2020/12/14 04:34:06;;;;;;;61.95;32.28;;;4.20;97.90;;;;;;2073746;28;20057;-77
2020/12/14 04:35:07;;;;;;;65.55;33.17;;;4.20;97.80;;;;;;2073488;28;20045;-76
2020/12/14 04:36:08;;;;;;;62.35;31.83;;;4.20;97.80;;;;;;2073784;28;20708;-76
2020/12/14 04:37:08;;;;;;;64.28;32.83;;;4.20;97.70;;;;;;2073350;28;20068;-76
2020/12/14 04:38:09;;;;;;;63.17;32.53;;;4.30;97.70;;;;;;2065076;28;20035;-77
2020/12/14 04:39:10;;;;;;;62.20;32.13;;;4.30;97.70;;;;;;2073195;28;20561;-76
2020/12/14 04:40:11;;;;;;;64.55;32.38;;;4.30;97.60;;;;;;2073195;28;20034;-76
2020/12/14 04:41:12;;;;;;;62.50;31.63;;;4.30;97.50;;;;;;2074571;28;20375;-76
2020/12/14 04:42:12;;;;;;;60.15;31.08;;;4.30;97.50;;;;;;2073292;28;20072;-76
2020/12/14 04:43:14;;;;;;;63.17;32.25;;;4.30;97.50;;;;;;2075617;28;20104;-76
2020/12/14 04:44:15;;;;;;;62.25;31.85;;;4.20;97.40;;;;;;2075907;28;20038;-76
2020/12/14 04:45:16;;;;;;;61.58;31.80;;;4.20;97.40;;;;;;2075690;28;20499;-76
2020/12/14 04:46:25;;;;;;;62.33;31.55;;;4.30;97.40;;;;;;2074443;28;20084;-76
2020/12/14 04:47:27;;;;;;;56.58;30.45;;;4.30;97.40;;;;;;2073802;28;20040;-77
2020/12/14 04:48:29;;;;;;;60.05;31.42;;;4.20;97.30;;;;;;2073370;28;20030;-75
2020/12/14 04:49:32;;;;;;;64.20;32.50;;;4.20;97.40;;;;;;2074114;28;20064;-75
2020/12/14 04:50:35;;;;;;;64.90;33.20;;;4.20;97.50;;;;;;2074680;28;20018;-75
2020/12/14 04:51:37;;;;;;;63.38;32.40;;;4.20;97.50;;;;;;2074154;28;20524;-75
2020/12/14 04:52:41;;;;;;;67.78;34.17;;;4.20;97.50;;;;;;2081283;28;20551;-75
2020/12/14 04:53:45;;;;;;;67.00;34.42;;;4.20;97.40;;;;;;2081995;28;20019;-75
2020/12/14 04:54:48;;;;;;;64.40;32.42;;;4.20;97.40;;;;;;2075147;28;20036;-76
2020/12/14 04:55:48;;;;;;;60.92;31.60;;;4.10;97.30;;;;;;2066675;28;20520;-76
2020/12/14 04:56:53;;;;;;;58.17;30.92;;;4.20;97.30;;;;;;2050761;28;20030;-75
2020/12/14 04:57:55;;;;;;;57.85;30.70;;;4.10;97.20;;;;;;2077556;28;20021;-76
2020/12/14 04:58:58;;;;;;;59.88;30.58;;;4.10;97.10;;;;;;2087817;28;20037;-76
2020/12/14 04:59:59;;;;;;;57.15;30.45;;;4.00;97.10;;;;;;2087632;28;20049;-75
2020/12/14 05:01:02;;;;;;;55.85;29.42;;;4.00;97.10;;;;;;2088347;28;20086;-74
2020/12/14 05:02:07;;;;;;;57.35;29.60;;;4.00;97.20;;;;;;2086681;28;20022;-76
2020/12/14 05:03:08;;;;;;;57.00;29.33;;;3.90;97.20;;;;;;2087157;28;20033;-77
2020/12/14 05:04:08;;;;;;;59.30;30.55;;;3.90;97.20;;;;;;2087407;28;20032;-76
2020/12/14 05:05:13;;;;;;;55.88;29.92;;;3.80;97.20;;;;;;2086537;28;20029;-77
2020/12/14 05:06:14;;;;;;;58.20;29.45;;;3.80;97.30;;;;;;2078290;28;20149;-77
2020/12/14 05:07:15;;;;;;;56.50;29.42;;;3.80;97.60;;;;;;2086680;28;20022;-77
2020/12/14 05:08:24;;;;;;;54.90;29.23;;;3.70;97.30;;;;;;2087331;28;20036;-75
2020/12/14 05:09:25;;;;;;;58.63;30.20;;;3.70;97.40;;;;;;2087293;28;20029;-75
2020/12/14 05:10:28;;;;;;;60.22;30.83;;;3.70;97.40;;;;;;2088181;28;20033;-77
2020/12/14 05:11:34;;;;;;;58.15;30.05;;;3.60;97.60;;;;;;2087376;28;20059;-75
2020/12/14 05:12:43;;;;;;;57.53;29.27;;;3.60;97.60;;;;;;2087653;28;20077;-74
2020/12/14 05:13:44;;;;;;;58.35;29.60;;;3.60;97.70;;;;;;2088676;28;20021;-76
2020/12/14 05:14:45;;;;;;;56.22;30.02;;;3.60;97.70;;;;;;2088641;28;20037;-76